VIJP/JAI METAR and TAF weather

Enter ICAO airport designator
Station Type Date Time Source
VIJP METAR 2020/07/14 22:30 UTC NOAA

VIJP 142230Z 00000KT 3000 HZ SCT030 SCT100 32/24 Q1001 NOSIG


Station Type Date Time Source
VIJP Decoded METAR 2020/07/14 22:30 UTC NOAA

Jaipur / Sanganer, India (VIJP) 26-49N 075-48E 390M
Jul 14, 2020 - 06:30 PM EDT / 2020.07.14 2230 UTC
Wind: Calm:0
Visibility: 1 mile(s):0
Sky conditions: partly cloudy
Weather: haze
Temperature: 89 F (32 C)
Heat index: 98.4 F (36.9 C):1
Dew Point: 75 F (24 C)
Relative Humidity: 62%
Pressure (altimeter): 29.56 in. Hg (1001 hPa)
ob: VIJP 142230Z 00000KT 3000 HZ SCT030 SCT100 32/24 Q1001 NOSIG
cycle: 22

Station Type Date Time Source
VIJP TAF 2020/07/14 18:00 UTC NOAA

TAF VIJP 141700Z 1418/1524 22006KT 3000 HZ SCT030 SCT100
TEMPO 1418/1424 24010KT 1500 TSRA FEW030CB OVC090
BECMG 1503/1505 27008KT 5000 HZ SCT030 SCT100
TEMPO 1506/1512 02008KT 1500 TSRA FEW030CB BKN100
BECMG 1513/1515 05007KT 3000 HZ

Example: see airport list